Time;durP1;ratioP1;P1;durP2;ratioP2;P2;SDS_P1;SDS_P2;PMS_P1;PMS_P2;Temp;Humidity;BMP_temperature;BMP_pressure;BME280_temperature;BME280_humidity;BME280_pressure;Samples;Min_cycle;Max_cycle;Signal;HPM_P1;HPM_P2
2023/09/30 05:08:01;;;;;;;;;;;;;;;;;;5300566;22;19924;-69
2023/09/30 05:10:29;;;;;;;;;;;;;;;;;;5053910;28;20370;-67
2023/09/30 05:12:56;;;;;;;;;;;;;;;;;;5054172;28;19931;-67
2023/09/30 05:15:23;;;;;;;;;;;;;;;;;;5054248;28;19925;-67
2023/09/30 05:17:50;;;;;;;;;;;;;;;;;;5054331;28;19932;-67
2023/09/30 05:20:18;;;;;;;;;;;;;;;;;;5054280;28;19925;-65
2023/09/30 05:22:45;;;;;;;;;;;;;;;;;;5077471;22;19929;-68
2023/09/30 05:25:12;;;;;;;;;;;;;;;;;;5053977;28;19979;-68
2023/09/30 05:27:39;;;;;;;;;;;;;;;;;;5053542;28;19932;-69
2023/09/30 05:30:07;;;;;;;;;;;;;;;;;;5053523;28;20409;-69
2023/09/30 05:32:34;;;;;;;;;;;;;;;;;;5053252;28;20007;-70
2023/09/30 05:35:06;;;;;;;;;;;;;;;;;;5053455;28;20424;-70
2023/09/30 05:37:33;;;;;;;;;;;;;;;;;;5053401;28;20370;-70
2023/09/30 05:40:00;;;;;;;;;;;;;;;;;;5053700;28;19931;-70
2023/09/30 05:42:27;;;;;;;;;;;;;;;;;;5053642;28;19939;-70
2023/09/30 05:44:54;;;;;;;;;;;;;;;;;;5053633;28;19925;-70
2023/09/30 05:47:21;;;;;;;;;;;;;;;;;;5053606;28;19948;-69
2023/09/30 05:49:48;;;;;;;;;;;;;;;;;;5053560;28;19925;-69
2023/09/30 05:52:15;;;;;;;;;;;;;;;;;;5053383;28;19924;-68
2023/09/30 05:54:42;;;;;;;;;;;;;;;;;;5053550;28;19929;-68
2023/09/30 05:57:09;;;;;;;;;;;;;;;;;;5053447;28;19925;-67
2023/09/30 05:59:36;;;;;;;;;;;;;;;;;;5053250;28;19925;-68
2023/09/30 06:02:04;;;;;;;;;;;;;;;;;;5053391;28;19932;-68
2023/09/30 06:04:33;;;;;;;;;;;;;;;;;;5053681;28;20039;-68
2023/09/30 06:07:00;;;;;;;;;;;;;;;;;;5053509;28;19925;-69
2023/09/30 06:09:29;;;;;;;;;;;;;;;;;;5053230;28;19925;-69
2023/09/30 06:11:55;;;;;;;;;;;;;;;;;;5053214;28;19932;-69
2023/09/30 06:14:22;;;;;;;;;;;;;;;;;;5053482;28;19924;-68
2023/09/30 06:16:49;;;;;;;;;;;;;;;;;;5053202;28;19925;-69
2023/09/30 06:19:17;;;;;;;;;;;;;;;;;;5052974;28;19925;-68
2023/09/30 06:21:44;;;;;;;;;;;;;;;;;;5052822;28;19928;-69
2023/09/30 06:24:11;;;;;;;;;;;;;;;;;;5053194;28;19925;-69
2023/09/30 06:26:39;;;;;;;;;;;;;;;;;;5053256;28;20015;-69
2023/09/30 06:29:06;;;;;;;;;;;;;;;;;;5053298;28;19924;-69
2023/09/30 06:31:33;;;;;;;;;;;;;;;;;;5053242;28;19925;-69
2023/09/30 06:34:01;;;;;;;;;;;;;;;;;;5053642;28;19932;-69
2023/09/30 06:36:28;;;;;;;;;;;;;;;;;;5053621;28;20023;-69
2023/09/30 06:38:54;;;;;;;;;;;;;;;;;;5053517;28;19979;-69
2023/09/30 06:41:22;;;;;;;;;;;;;;;;;;5053010;28;20321;-69
2023/09/30 06:43:49;;;;;;;;;;;;;;;;;;5054489;28;20027;-69
2023/09/30 06:46:16;;;;;;;;;;;;;;;;;;5056720;28;19947;-69
2023/09/30 06:48:43;;;;;;;;;;;;;;;;;;5056682;28;19932;-69
2023/09/30 06:51:10;;;;;;;;;;;;;;;;;;5056912;28;19948;-69
2023/09/30 06:53:37;;;;;;;;;;;;;;;;;;5057905;28;19925;-69
2023/09/30 06:56:04;;;;;;;;;;;;;;;;;;5057357;28;20016;-69
2023/09/30 06:58:31;;;;;;;;;;;;;;;;;;5057299;28;20285;-69
2023/09/30 07:00:58;;;;;;;;;;;;;;;;;;5056974;28;20266;-69
2023/09/30 07:03:25;;;;;;;;;;;;;;;;;;5057386;28;19925;-68
2023/09/30 07:05:54;;;;;;;;;;;;;;;;;;5057215;28;19928;-68
2023/09/30 07:08:21;;;;;;;;;;;;;;;;;;5057625;28;19924;-68
2023/09/30 07:10:49;;;;;;;;;;;;;;;;;;5057833;28;20431;-68
2023/09/30 07:13:16;;;;;;;;;;;;;;;;;;5058363;28;20381;-69
2023/09/30 07:15:43;;;;;;;;;;;;;;;;;;5058485;28;19932;-69
2023/09/30 07:18:12;;;;;;;;;;;;;;;;;;5057557;28;19929;-69
2023/09/30 07:20:38;;;;;;;;;;;;;;;;;;5057449;28;19924;-69
2023/09/30 07:23:06;;;;;;;;;;;;;;;;;;5057182;28;20336;-69
2023/09/30 07:25:34;;;;;;;;;;;;;;;;;;5057173;28;19924;-69
2023/09/30 07:28:01;;;;;;;;;;;;;;;;;;5057310;28;19925;-69
2023/09/30 07:30:28;;;;;;;;;;;;;;;;;;5056846;28;19947;-69
2023/09/30 07:32:55;;;;;;;;;;;;;;;;;;5056772;28;20342;-69
2023/09/30 07:35:22;;;;;;;;;;;;;;;;;;5055742;28;19936;-69
2023/09/30 07:37:51;;;;;;;;;;;;;;;;;;5055325;28;19925;-69
2023/09/30 07:40:18;;;;;;;;;;;;;;;;;;5055628;28;20020;-69
2023/09/30 07:42:45;;;;;;;;;;;;;;;;;;5055265;28;20305;-70
2023/09/30 07:45:16;;;;;;;;;;;;;;;;;;5055559;28;19928;-69
2023/09/30 07:47:43;;;;;;;;;;;;;;;;;;5055591;28;20015;-68
2023/09/30 07:50:11;;;;;;;;;;;;;;;;;;5055434;28;19925;-69
2023/09/30 07:52:39;;;;;;;;;;;;;;;;;;5055193;28;20393;-70
2023/09/30 07:55:06;;;;;;;;;;;;;;;;;;5054966;28;20046;-70
2023/09/30 07:57:33;;;;;;;;;;;;;;;;;;5055125;28;20030;-70
2023/09/30 08:00:00;;;;;;;;;;;;;;;;;;5055278;28;19924;-70
2023/09/30 08:02:32;;;;;;;;;;;;;;;;;;5055202;28;19932;-70
2023/09/30 08:05:00;;;;;;;;;;;;;;;;;;5055330;28;19925;-70
2023/09/30 08:07:27;;;;;;;;;;;;;;;;;;5055153;28;19925;-70
2023/09/30 08:09:54;;;;;;;;;;;;;;;;;;5055066;28;20299;-70
2023/09/30 08:12:21;;;;;;;;;;;;;;;;;;5055075;28;19932;-70
2023/09/30 08:14:48;;;;;;;;;;;;;;;;;;5054593;28;20413;-70
2023/09/30 08:17:15;;;;;;;;;;;;;;;;;;5054846;28;19948;-70
2023/09/30 08:19:42;;;;;;;;;;;;;;;;;;5055766;28;19924;-70
2023/09/30 08:22:09;;;;;;;;;;;;;;;;;;5054500;28;19925;-70
2023/09/30 08:24:36;;;;;;;;;;;;;;;;;;5054829;28;19931;-70
2023/09/30 08:27:03;;;;;;;;;;;;;;;;;;5054725;28;19928;-70
2023/09/30 08:29:30;;;;;;;;;;;;;;;;;;5054546;28;19929;-70
2023/09/30 08:31:57;;;;;;;;;;;;;;;;;;5054625;28;19932;-71
2023/09/30 08:34:24;;;;;;;;;;;;;;;;;;5054368;28;20386;-70
2023/09/30 08:36:50;;;;;;;;;;;;;;;;;;5054295;28;19983;-70
2023/09/30 08:39:17;;;;;;;;;;;;;;;;;;5054349;28;19925;-70
2023/09/30 08:41:45;;;;;;;;;;;;;;;;;;5054318;28;19925;-70
2023/09/30 08:44:12;;;;;;;;;;;;;;;;;;5054380;28;19931;-71
2023/09/30 08:46:39;;;;;;;;;;;;;;;;;;5054076;28;20374;-69
2023/09/30 08:49:06;;;;;;;;;;;;;;;;;;5054351;28;19932;-69
2023/09/30 08:51:33;;;;;;;;;;;;;;;;;;5054175;28;19925;-69
2023/09/30 08:54:00;;;;;;;;;;;;;;;;;;5054109;28;19925;-69
2023/09/30 08:56:27;;;;;;;;;;;;;;;;;;5053833;28;20440;-70
2023/09/30 08:58:54;;;;;;;;;;;;;;;;;;5054061;28;19924;-70
2023/09/30 09:01:21;;;;;;;;;;;;;;;;;;5054107;28;19947;-70
2023/09/30 09:03:52;;;;;;;;;;;;;;;;;;5054743;28;19924;-69
2023/09/30 09:06:19;;;;;;;;;;;;;;;;;;5053381;28;20019;-67
2023/09/30 09:08:46;;;;;;;;;;;;;;;;;;5054029;28;19932;-71
2023/09/30 09:11:14;;;;;;;;;;;;;;;;;;5054632;28;19929;-73
2023/09/30 09:13:40;;;;;;;;;;;;;;;;;;5054028;28;19925;-72
2023/09/30 09:16:08;;;;;;;;;;;;;;;;;;5053971;28;19924;-70
2023/09/30 09:18:35;;;;;;;;;;;;;;;;;;5054011;28;19924;-72
2023/09/30 09:21:02;;;;;;;;;;;;;;;;;;5053723;28;19925;-69
2023/09/30 09:23:29;;;;;;;;;;;;;;;;;;5054189;28;19932;-69
2023/09/30 09:25:56;;;;;;;;;;;;;;;;;;5056488;28;19937;-70
2023/09/30 09:28:23;;;;;;;;;;;;;;;;;;5054250;28;19929;-69
2023/09/30 09:30:50;;;;;;;;;;;;;;;;;;5053584;28;19925;-70
2023/09/30 09:33:17;;;;;;;;;;;;;;;;;;5053539;28;19925;-75
2023/09/30 09:35:44;;;;;;;;;;;;;;;;;;5053954;28;19928;-77
2023/09/30 09:38:11;;;;;;;;;;;;;;;;;;5053972;28;19925;-75
2023/09/30 09:40:38;;;;;;;;;;;;;;;;;;5054610;28;19948;-74
2023/09/30 09:43:05;;;;;;;;;;;;;;;;;;5053896;28;19925;-75
2023/09/30 09:45:32;;;;;;;;;;;;;;;;;;5054539;28;19925;-76
2023/09/30 09:47:59;;;;;;;;;;;;;;;;;;5054625;28;20019;-72
2023/09/30 09:50:26;;;;;;;;;;;;;;;;;;5054512;28;19954;-75
2023/09/30 09:52:54;;;;;;;;;;;;;;;;;;5053566;28;19925;-73
2023/09/30 09:55:21;;;;;;;;;;;;;;;;;;5053578;28;19947;-71
2023/09/30 09:57:48;;;;;;;;;;;;;;;;;;5053375;28;20360;-74
2023/09/30 10:00:15;;;;;;;;;;;;;;;;;;5053100;28;20356;-73
2023/09/30 10:02:42;;;;;;;;;;;;;;;;;;5053407;28;19932;-73
2023/09/30 10:05:11;;;;;;;;;;;;;;;;;;5053162;28;19925;-74
2023/09/30 10:07:38;;;;;;;;;;;;;;;;;;5053498;28;19925;-73
2023/09/30 10:10:05;;;;;;;;;;;;;;;;;;5053388;28;19925;-73
2023/09/30 10:12:32;;;;;;;;;;;;;;;;;;5053336;28;19924;-73
2023/09/30 10:14:59;;;;;;;;;;;;;;;;;;5053305;28;20301;-74
2023/09/30 10:17:26;;;;;;;;;;;;;;;;;;5054022;28;19925;-72
2023/09/30 10:19:52;;;;;;;;;;;;;;;;;;5056572;28;20325;-72
2023/09/30 10:22:19;;;;;;;;;;;;;;;;;;5056851;28;19927;-71
2023/09/30 10:24:46;;;;;;;;;;;;;;;;;;5056681;28;20361;-71
2023/09/30 10:27:13;;;;;;;;;;;;;;;;;;5057082;28;19925;-70
2023/09/30 10:29:40;;;;;;;;;;;;;;;;;;5056664;28;20401;-70
2023/09/30 10:32:07;;;;;;;;;;;;;;;;;;5056810;28;19925;-70
2023/09/30 10:34:34;;;;;;;;;;;;;;;;;;5056919;28;19924;-70
2023/09/30 10:37:00;;;;;;;;;;;;;;;;;;5056889;28;19925;-70
2023/09/30 10:39:27;;;;;;;;;;;;;;;;;;5056630;28;20294;-70
2023/09/30 10:41:54;;;;;;;;;;;;;;;;;;5056732;28;19929;-71
2023/09/30 10:44:21;;;;;;;;;;;;;;;;;;5056494;28;20305;-74
2023/09/30 10:46:49;;;;;;;;;;;;;;;;;;5056820;28;19932;-74
2023/09/30 10:49:17;;;;;;;;;;;;;;;;;;5056549;28;19932;-73
2023/09/30 10:51:44;;;;;;;;;;;;;;;;;;5056661;28;20016;-73
2023/09/30 10:54:11;;;;;;;;;;;;;;;;;;5056593;28;20322;-71
2023/09/30 10:56:38;;;;;;;;;;;;;;;;;;5056861;28;20282;-71
2023/09/30 10:59:05;;;;;;;;;;;;;;;;;;5056357;28;19925;-73
2023/09/30 11:01:32;;;;;;;;;;;;;;;;;;5056703;28;19931;-71
2023/09/30 11:03:59;;;;;;;;;;;;;;;;;;5056421;28;19925;-73
2023/09/30 11:06:26;;;;;;;;;;;;;;;;;;5056035;28;20393;-72
2023/09/30 11:08:53;;;;;;;;;;;;;;;;;;5055954;28;20374;-75
2023/09/30 11:11:19;;;;;;;;;;;;;;;;;;5056651;28;19924;-73
2023/09/30 11:13:46;;;;;;;;;;;;;;;;;;5056293;28;19925;-70
2023/09/30 11:16:13;;;;;;;;;;;;;;;;;;5056074;28;19931;-70
2023/09/30 11:18:40;;;;;;;;;;;;;;;;;;5056214;28;19978;-70
2023/09/30 11:21:06;;;;;;;;;;;;;;;;;;5056136;28;19931;-68
2023/09/30 11:23:33;;;;;;;;;;;;;;;;;;5055867;28;19920;-71
2023/09/30 11:26:00;;;;;;;;;;;;;;;;;;5056057;28;19947;-71
2023/09/30 11:28:27;;;;;;;;;;;;;;;;;;5055862;28;19971;-69
2023/09/30 11:30:54;;;;;;;;;;;;;;;;;;5055295;28;20305;-70
2023/09/30 11:33:22;;;;;;;;;;;;;;;;;;5055858;28;19932;-70
2023/09/30 11:35:49;;;;;;;;;;;;;;;;;;5055850;28;19924;-70
2023/09/30 11:38:16;;;;;;;;;;;;;;;;;;5055873;28;19925;-70
2023/09/30 11:40:43;;;;;;;;;;;;;;;;;;5056441;28;19924;-68
2023/09/30 11:43:11;;;;;;;;;;;;;;;;;;5055690;28;19925;-69
2023/09/30 11:45:38;;;;;;;;;;;;;;;;;;5055886;28;19925;-69
2023/09/30 11:48:05;;;;;;;;;;;;;;;;;;5055322;28;19925;-69
2023/09/30 11:50:33;;;;;;;;;;;;;;;;;;5055322;28;20390;-69
2023/09/30 11:52:59;;;;;;;;;;;;;;;;;;5055535;28;19932;-69
2023/09/30 11:55:26;;;;;;;;;;;;;;;;;;5055538;28;19925;-69
2023/09/30 11:57:54;;;;;;;;;;;;;;;;;;5055424;28;19925;-69
2023/09/30 12:00:21;;;;;;;;;;;;;;;;;;5055481;28;20271;-69
2023/09/30 12:02:48;;;;;;;;;;;;;;;;;;5055069;28;20394;-71
2023/09/30 12:05:16;;;;;;;;;;;;;;;;;;5055229;28;19935;-71
2023/09/30 12:07:43;;;;;;;;;;;;;;;;;;5055450;28;19931;-71
2023/09/30 12:10:14;;;;;;;;;;;;;;;;;;5055490;28;20348;-71
2023/09/30 12:12:41;;;;;;;;;;;;;;;;;;5055247;28;19924;-71
2023/09/30 12:15:10;;;;;;;;;;;;;;;;;;5054961;28;20401;-71
2023/09/30 12:17:39;;;;;;;;;;;;;;;;;;5055218;28;19931;-71
2023/09/30 12:20:06;;;;;;;;;;;;;;;;;;5054921;28;20435;-70
2023/09/30 12:22:33;;;;;;;;;;;;;;;;;;5054700;28;19925;-70
2023/09/30 12:25:00;;;;;;;;;;;;;;;;;;5055054;28;19964;-70
2023/09/30 12:27:27;;;;;;;;;;;;;;;;;;5054973;28;20019;-70
2023/09/30 12:29:55;;;;;;;;;;;;;;;;;;5054827;28;19932;-70
2023/09/30 12:32:23;;;;;;;;;;;;;;;;;;5055100;28;19925;-70
2023/09/30 12:34:51;;;;;;;;;;;;;;;;;;5055113;28;19931;-71
2023/09/30 12:37:18;;;;;;;;;;;;;;;;;;5055043;28;19976;-72
2023/09/30 12:39:45;;;;;;;;;;;;;;;;;;5054749;28;20267;-70
2023/09/30 12:42:12;;;;;;;;;;;;;;;;;;5055147;28;20358;-71
2023/09/30 12:44:39;;;;;;;;;;;;;;;;;;5055025;28;19971;-68
2023/09/30 12:47:06;;;;;;;;;;;;;;;;;;5054618;28;19960;-68
2023/09/30 12:49:33;;;;;;;;;;;;;;;;;;5054523;28;20019;-68
2023/09/30 12:52:01;;;;;;;;;;;;;;;;;;5054555;28;19925;-68
2023/09/30 12:54:28;;;;;;;;;;;;;;;;;;5054616;28;20355;-70
2023/09/30 12:56:55;;;;;;;;;;;;;;;;;;5054413;28;19924;-70
2023/09/30 12:59:25;;;;;;;;;;;;;;;;;;5054379;28;19931;-71
2023/09/30 13:01:52;;;;;;;;;;;;;;;;;;5054425;28;19931;-70
2023/09/30 13:04:19;;;;;;;;;;;;;;;;;;5054371;28;19925;-69
2023/09/30 13:06:46;;;;;;;;;;;;;;;;;;5053840;28;20444;-69
2023/09/30 13:09:13;;;;;;;;;;;;;;;;;;5054114;28;19925;-68
2023/09/30 13:11:41;;;;;;;;;;;;;;;;;;5053727;28;21393;-68
2023/09/30 13:14:08;;;;;;;;;;;;;;;;;;5053991;28;20293;-69
2023/09/30 13:16:35;;;;;;;;;;;;;;;;;;5054129;28;19929;-68
2023/09/30 13:19:02;;;;;;;;;;;;;;;;;;5053855;28;20382;-69
2023/09/30 13:21:30;;;;;;;;;;;;;;;;;;5054263;28;19928;-71
2023/09/30 13:23:56;;;;;;;;;;;;;;;;;;5054154;28;19975;-73
2023/09/30 13:26:24;;;;;;;;;;;;;;;;;;5053953;28;19925;-70
2023/09/30 13:28:50;;;;;;;;;;;;;;;;;;5053944;28;19925;-73
2023/09/30 13:31:17;;;;;;;;;;;;;;;;;;5053920;28;19925;-71
2023/09/30 13:33:44;;;;;;;;;;;;;;;;;;5053686;28;20271;-72
2023/09/30 13:36:11;;;;;;;;;;;;;;;;;;5053820;28;19932;-72
2023/09/30 13:38:38;;;;;;;;;;;;;;;;;;5054264;28;20286;-72
2023/09/30 13:41:05;;;;;;;;;;;;;;;;;;5054227;28;19952;-72
2023/09/30 13:43:32;;;;;;;;;;;;;;;;;;5053799;28;20398;-72
2023/09/30 13:45:59;;;;;;;;;;;;;;;;;;5053864;28;19931;-73
2023/09/30 13:48:26;;;;;;;;;;;;;;;;;;5053832;28;20313;-74
2023/09/30 13:50:53;;;;;;;;;;;;;;;;;;5053889;28;19924;-73
2023/09/30 13:53:19;;;;;;;;;;;;;;;;;;5057687;28;19974;-72
2023/09/30 13:55:47;;;;;;;;;;;;;;;;;;5058885;28;19925;-72
2023/09/30 13:58:14;;;;;;;;;;;;;;;;;;5058202;28;19925;-71
2023/09/30 14:00:42;;;;;;;;;;;;;;;;;;5057782;28;19925;-72
2023/09/30 14:03:09;;;;;;;;;;;;;;;;;;5057831;28;20035;-73
2023/09/30 14:05:38;;;;;;;;;;;;;;;;;;5057918;28;19975;-72
2023/09/30 14:08:07;;;;;;;;;;;;;;;;;;5058412;28;19931;-72
2023/09/30 14:10:34;;;;;;;;;;;;;;;;;;5057566;28;19925;-72
2023/09/30 14:13:01;;;;;;;;;;;;;;;;;;5057720;28;19925;-72
2023/09/30 14:15:28;;;;;;;;;;;;;;;;;;5057727;28;19924;-71
2023/09/30 14:17:55;;;;;;;;;;;;;;;;;;5057945;28;19972;-73
2023/09/30 14:20:22;;;;;;;;;;;;;;;;;;5057357;28;19925;-71
2023/09/30 14:22:51;;;;;;;;;;;;;;;;;;5056982;28;20329;-72
2023/09/30 14:25:18;;;;;;;;;;;;;;;;;;5057385;28;19931;-71
2023/09/30 14:27:45;;;;;;;;;;;;;;;;;;5057253;28;20305;-72
2023/09/30 14:30:12;;;;;;;;;;;;;;;;;;5057239;28;19924;-71
2023/09/30 14:32:39;;;;;;;;;;;;;;;;;;5057660;28;19960;-71
2023/09/30 14:35:06;;;;;;;;;;;;;;;;;;5057326;28;19982;-71
2023/09/30 14:37:33;;;;;;;;;;;;;;;;;;5056751;28;20412;-70
2023/09/30 14:40:00;;;;;;;;;;;;;;;;;;5057192;28;19932;-71
2023/09/30 14:42:27;;;;;;;;;;;;;;;;;;5056733;28;19925;-71
2023/09/30 14:44:54;;;;;;;;;;;;;;;;;;5057047;28;19931;-72
2023/09/30 14:47:21;;;;;;;;;;;;;;;;;;5056728;28;20374;-73
2023/09/30 14:49:48;;;;;;;;;;;;;;;;;;5056918;28;19931;-73
2023/09/30 14:52:16;;;;;;;;;;;;;;;;;;5056536;28;19924;-73
2023/09/30 14:54:42;;;;;;;;;;;;;;;;;;5056743;28;19998;-73
2023/09/30 14:57:09;;;;;;;;;;;;;;;;;;5056609;28;19948;-71
2023/09/30 14:59:36;;;;;;;;;;;;;;;;;;5057038;28;19936;-71
2023/09/30 15:02:03;;;;;;;;;;;;;;;;;;5056441;28;19932;-70
2023/09/30 15:04:30;;;;;;;;;;;;;;;;;;5055296;28;19932;-72
2023/09/30 15:06:57;;;;;;;;;;;;;;;;;;5056526;28;19925;-68
2023/09/30 15:09:24;;;;;;;;;;;;;;;;;;5056667;28;19931;-67
2023/09/30 15:11:51;;;;;;;;;;;;;;;;;;5056488;28;19932;-71
2023/09/30 15:14:18;;;;;;;;;;;;;;;;;;5056312;28;19931;-70
2023/09/30 15:16:45;;;;;;;;;;;;;;;;;;5056437;28;19983;-71
2023/09/30 15:19:12;;;;;;;;;;;;;;;;;;5056399;28;19987;-71
2023/09/30 15:21:38;;;;;;;;;;;;;;;;;;5055879;28;19932;-71
2023/09/30 15:24:05;;;;;;;;;;;;;;;;;;5055986;28;19925;-71
2023/09/30 15:26:32;;;;;;;;;;;;;;;;;;5056178;28;19925;-70
2023/09/30 15:28:59;;;;;;;;;;;;;;;;;;5056155;28;19932;-70
2023/09/30 15:31:27;;;;;;;;;;;;;;;;;;5056081;28;19925;-70
2023/09/30 15:33:53;;;;;;;;;;;;;;;;;;5055934;28;19925;-71
2023/09/30 15:36:21;;;;;;;;;;;;;;;;;;5055983;28;19925;-70
2023/09/30 15:38:48;;;;;;;;;;;;;;;;;;5055966;28;19971;-73
2023/09/30 15:41:15;;;;;;;;;;;;;;;;;;5055798;28;20420;-71
2023/09/30 15:43:42;;;;;;;;;;;;;;;;;;5056578;28;19932;-73
2023/09/30 15:46:09;;;;;;;;;;;;;;;;;;5056294;28;19925;-72
2023/09/30 15:48:36;;;;;;;;;;;;;;;;;;5055526;28;19925;-73
2023/09/30 15:51:03;;;;;;;;;;;;;;;;;;5055899;28;19924;-73
2023/09/30 15:53:33;;;;;;;;;;;;;;;;;;5055564;28;19925;-73
2023/09/30 15:56:01;;;;;;;;;;;;;;;;;;5055575;28;20357;-73
2023/09/30 15:58:28;;;;;;;;;;;;;;;;;;5055259;28;20367;-74
2023/09/30 16:00:55;;;;;;;;;;;;;;;;;;5055387;28;20015;-72
2023/09/30 16:03:22;;;;;;;;;;;;;;;;;;5055349;28;19932;-73
2023/09/30 16:05:49;;;;;;;;;;;;;;;;;;5055612;28;19972;-73
2023/09/30 16:08:16;;;;;;;;;;;;;;;;;;5055401;28;19925;-73
2023/09/30 16:10:43;;;;;;;;;;;;;;;;;;5055095;28;20367;-72
2023/09/30 16:13:10;;;;;;;;;;;;;;;;;;5055526;28;19925;-72
2023/09/30 16:15:37;;;;;;;;;;;;;;;;;;5055193;28;19929;-72
2023/09/30 16:18:04;;;;;;;;;;;;;;;;;;5055937;28;19932;-72
2023/09/30 16:20:31;;;;;;;;;;;;;;;;;;5055473;28;19925;-72
2023/09/30 16:22:58;;;;;;;;;;;;;;;;;;5054854;28;19925;-72
2023/09/30 16:25:25;;;;;;;;;;;;;;;;;;5054985;28;20299;-73
2023/09/30 16:27:54;;;;;;;;;;;;;;;;;;5055135;28;19931;-72
2023/09/30 16:30:21;;;;;;;;;;;;;;;;;;5055129;28;19925;-72
2023/09/30 16:32:48;;;;;;;;;;;;;;;;;;5055037;28;19925;-72
2023/09/30 16:35:15;;;;;;;;;;;;;;;;;;5055112;28;19924;-72
2023/09/30 16:37:42;;;;;;;;;;;;;;;;;;5055359;28;19925;-73
2023/09/30 16:40:09;;;;;;;;;;;;;;;;;;5054747;28;19970;-70
2023/09/30 16:42:36;;;;;;;;;;;;;;;;;;5054544;28;19925;-72
2023/09/30 16:45:04;;;;;;;;;;;;;;;;;;5054273;28;20042;-74
2023/09/30 16:47:32;;;;;;;;;;;;;;;;;;5054807;28;20330;-73
2023/09/30 16:50:00;;;;;;;;;;;;;;;;;;5054550;28;19925;-73
2023/09/30 16:52:27;;;;;;;;;;;;;;;;;;5054445;28;20010;-72
2023/09/30 16:54:54;;;;;;;;;;;;;;;;;;5054279;28;19924;-72
2023/09/30 16:57:22;;;;;;;;;;;;;;;;;;5054379;28;19924;-72
2023/09/30 16:59:49;;;;;;;;;;;;;;;;;;5054184;28;19932;-73
2023/09/30 17:02:17;;;;;;;;;;;;;;;;;;5054149;28;19925;-73
2023/09/30 17:04:44;;;;;;;;;;;;;;;;;;5054000;28;20374;-72
2023/09/30 17:07:11;;;;;;;;;;;;;;;;;;5054334;28;19924;-72
2023/09/30 17:09:38;;;;;;;;;;;;;;;;;;5054100;28;20303;-72
2023/09/30 17:12:05;;;;;;;;;;;;;;;;;;5053970;28;19925;-72
2023/09/30 17:14:32;;;;;;;;;;;;;;;;;;5053987;28;20282;-72
2023/09/30 17:16:59;;;;;;;;;;;;;;;;;;5053872;28;19972;-71
2023/09/30 17:19:26;;;;;;;;;;;;;;;;;;5054039;28;19925;-71
2023/09/30 17:21:54;;;;;;;;;;;;;;;;;;5053420;28;20378;-72
2023/09/30 17:24:21;;;;;;;;;;;;;;;;;;5054035;28;19979;-73
2023/09/30 17:26:48;;;;;;;;;;;;;;;;;;5053833;28;19964;-73
2023/09/30 17:29:15;;;;;;;;;;;;;;;;;;5054282;28;20011;-73
2023/09/30 17:31:42;;;;;;;;;;;;;;;;;;5055763;28;19947;-72
2023/09/30 17:34:09;;;;;;;;;;;;;;;;;;5054015;28;19932;-72
2023/09/30 17:36:36;;;;;;;;;;;;;;;;;;5054122;28;19925;-72
2023/09/30 17:39:04;;;;;;;;;;;;;;;;;;5054449;28;19936;-71
2023/09/30 17:41:31;;;;;;;;;;;;;;;;;;5054139;28;19970;-69
2023/09/30 17:43:57;;;;;;;;;;;;;;;;;;5055214;28;19928;-69
2023/09/30 17:46:24;;;;;;;;;;;;;;;;;;5054218;28;20299;-69
2023/09/30 17:48:51;;;;;;;;;;;;;;;;;;5053860;28;19925;-69
2023/09/30 17:51:19;;;;;;;;;;;;;;;;;;5053485;28;20294;-69
2023/09/30 17:53:46;;;;;;;;;;;;;;;;;;5060567;28;19925;-69
2023/09/30 17:56:13;;;;;;;;;;;;;;;;;;5057648;28;19924;-69
2023/09/30 17:58:40;;;;;;;;;;;;;;;;;;5061277;28;19925;-69
2023/09/30 18:01:07;;;;;;;;;;;;;;;;;;5060672;28;20448;-69
2023/09/30 18:03:34;;;;;;;;;;;;;;;;;;5054732;28;19971;-69
2023/09/30 18:06:01;;;;;;;;;;;;;;;;;;5058977;28;19925;-69
2023/09/30 18:08:28;;;;;;;;;;;;;;;;;;5059760;28;19935;-69
2023/09/30 18:10:56;;;;;;;;;;;;;;;;;;5054188;28;20299;-69
2023/09/30 18:13:23;;;;;;;;;;;;;;;;;;5055275;28;19948;-69
2023/09/30 18:15:50;;;;;;;;;;;;;;;;;;5057320;28;19947;-69
2023/09/30 18:18:17;;;;;;;;;;;;;;;;;;5061578;28;19924;-68
2023/09/30 18:20:44;;;;;;;;;;;;;;;;;;5060565;28;19925;-69
2023/09/30 18:23:11;;;;;;;;;;;;;;;;;;5060517;28;19925;-69
2023/09/30 18:25:38;;;;;;;;;;;;;;;;;;5064872;28;19925;-69
2023/09/30 18:28:06;;;;;;;;;;;;;;;;;;5072280;28;19925;-71
2023/09/30 18:30:33;;;;;;;;;;;;;;;;;;5071840;28;19925;-71
2023/09/30 18:33:02;;;;;;;;;;;;;;;;;;5073054;28;19909;-71
2023/09/30 18:35:29;;;;;;;;;;;;;;;;;;5074239;28;20016;-71
2023/09/30 18:37:56;;;;;;;;;;;;;;;;;;5074165;28;19948;-71
2023/09/30 18:40:23;;;;;;;;;;;;;;;;;;5079216;28;19931;-72
2023/09/30 18:42:50;;;;;;;;;;;;;;;;;;5078339;28;19924;-72
2023/09/30 18:45:17;;;;;;;;;;;;;;;;;;5078011;28;19925;-73
2023/09/30 18:47:44;;;;;;;;;;;;;;;;;;5077941;28;19948;-72
2023/09/30 18:50:11;;;;;;;;;;;;;;;;;;5061825;28;20035;-72
2023/09/30 18:52:37;;;;;;;;;;;;;;;;;;5057857;28;19925;-74
2023/09/30 18:55:04;;;;;;;;;;;;;;;;;;5057382;28;19932;-73
2023/09/30 18:57:31;;;;;;;;;;;;;;;;;;5059265;28;19932;-72
2023/09/30 18:59:58;;;;;;;;;;;;;;;;;;5058574;28;20007;-72
2023/09/30 19:02:25;;;;;;;;;;;;;;;;;;5058457;28;19932;-74
2023/09/30 19:04:52;;;;;;;;;;;;;;;;;;5058569;28;19925;-74
2023/09/30 19:07:19;;;;;;;;;;;;;;;;;;5058513;28;20011;-72
2023/09/30 19:09:46;;;;;;;;;;;;;;;;;;5059864;28;19925;-73
2023/09/30 19:12:13;;;;;;;;;;;;;;;;;;5059447;28;20301;-72
2023/09/30 19:14:40;;;;;;;;;;;;;;;;;;5057648;28;19931;-72
2023/09/30 19:17:07;;;;;;;;;;;;;;;;;;5057538;28;19925;-73
2023/09/30 19:19:34;;;;;;;;;;;;;;;;;;5057333;28;19932;-73
2023/09/30 19:22:01;;;;;;;;;;;;;;;;;;5057242;28;20301;-73
2023/09/30 19:24:28;;;;;;;;;;;;;;;;;;5057407;28;19924;-72
2023/09/30 19:26:55;;;;;;;;;;;;;;;;;;5057032;28;19925;-72
2023/09/30 19:29:21;;;;;;;;;;;;;;;;;;5056893;28;19932;-72
2023/09/30 19:31:49;;;;;;;;;;;;;;;;;;5056261;28;20302;-72
2023/09/30 19:34:16;;;;;;;;;;;;;;;;;;5056420;28;19931;-72
2023/09/30 19:36:43;;;;;;;;;;;;;;;;;;5056171;28;20283;-71
2023/09/30 19:39:10;;;;;;;;;;;;;;;;;;5056183;28;19925;-71
2023/09/30 19:41:39;;;;;;;;;;;;;;;;;;5056033;28;19924;-71
2023/09/30 19:44:06;;;;;;;;;;;;;;;;;;5056407;28;19955;-70
2023/09/30 19:46:33;;;;;;;;;;;;;;;;;;5056637;28;20290;-71
2023/09/30 19:49:00;;;;;;;;;;;;;;;;;;5056302;28;19924;-71
2023/09/30 19:51:27;;;;;;;;;;;;;;;;;;5055186;28;19925;-71
2023/09/30 19:53:54;;;;;;;;;;;;;;;;;;5055716;28;19932;-72
2023/09/30 19:56:21;;;;;;;;;;;;;;;;;;5055731;28;19925;-71
2023/09/30 19:58:48;;;;;;;;;;;;;;;;;;5055764;28;19932;-70
2023/09/30 20:01:19;;;;;;;;;;;;;;;;;;5055514;28;20275;-71
2023/09/30 20:03:46;;;;;;;;;;;;;;;;;;5056588;28;19939;-71
2023/09/30 20:06:13;;;;;;;;;;;;;;;;;;5055522;28;19925;-70
2023/09/30 20:08:40;;;;;;;;;;;;;;;;;;5055362;28;19925;-69
2023/09/30 20:11:07;;;;;;;;;;;;;;;;;;5055177;28;20012;-70
2023/09/30 20:13:36;;;;;;;;;;;;;;;;;;5055164;28;19932;-70
2023/09/30 20:16:02;;;;;;;;;;;;;;;;;;5055200;28;19947;-70
2023/09/30 20:18:31;;;;;;;;;;;;;;;;;;5055030;28;19932;-70
2023/09/30 20:20:58;;;;;;;;;;;;;;;;;;5054645;28;20362;-69
2023/09/30 20:23:25;;;;;;;;;;;;;;;;;;5055035;28;20344;-69
2023/09/30 20:25:52;;;;;;;;;;;;;;;;;;5054877;28;19924;-69
2023/09/30 20:28:18;;;;;;;;;;;;;;;;;;5054565;28;20402;-68
2023/09/30 20:30:45;;;;;;;;;;;;;;;;;;5054782;28;19932;-69
2023/09/30 20:33:12;;;;;;;;;;;;;;;;;;5054482;28;19925;-68
2023/09/30 20:35:40;;;;;;;;;;;;;;;;;;5054855;28;19928;-68
2023/09/30 20:38:06;;;;;;;;;;;;;;;;;;5054783;28;19928;-68
2023/09/30 20:40:34;;;;;;;;;;;;;;;;;;5054534;28;19932;-68
2023/09/30 20:43:01;;;;;;;;;;;;;;;;;;5054356;28;20405;-69
2023/09/30 20:45:28;;;;;;;;;;;;;;;;;;5054612;28;19932;-69
2023/09/30 20:47:55;;;;;;;;;;;;;;;;;;5054196;28;20401;-69
2023/09/30 20:50:22;;;;;;;;;;;;;;;;;;5054490;28;19925;-68
2023/09/30 20:52:50;;;;;;;;;;;;;;;;;;5054571;28;19928;-69
2023/09/30 20:55:17;;;;;;;;;;;;;;;;;;5054576;28;19925;-71
2023/09/30 20:57:44;;;;;;;;;;;;;;;;;;5054373;28;19925;-70
2023/09/30 21:00:12;;;;;;;;;;;;;;;;;;5054394;28;19924;-69
2023/09/30 21:02:41;;;;;;;;;;;;;;;;;;5053205;28;19978;-70
2023/09/30 21:05:08;;;;;;;;;;;;;;;;;;5054387;28;20286;-72
2023/09/30 21:07:34;;;;;;;;;;;;;;;;;;5054229;28;19925;-72
2023/09/30 21:10:01;;;;;;;;;;;;;;;;;;5054173;28;19925;-71
2023/09/30 21:12:28;;;;;;;;;;;;;;;;;;5054395;28;19925;-71
2023/09/30 21:14:56;;;;;;;;;;;;;;;;;;5054713;28;19925;-72
2023/09/30 21:17:23;;;;;;;;;;;;;;;;;;5054285;28;19975;-72
2023/09/30 21:19:50;;;;;;;;;;;;;;;;;;5054077;28;19979;-72
2023/09/30 21:22:17;;;;;;;;;;;;;;;;;;5053592;28;19932;-71
2023/09/30 21:24:44;;;;;;;;;;;;;;;;;;5053730;28;20302;-69
2023/09/30 21:27:11;;;;;;;;;;;;;;;;;;5053788;28;19979;-69
2023/09/30 21:29:38;;;;;;;;;;;;;;;;;;5053969;28;19932;-69
2023/09/30 21:32:06;;;;;;;;;;;;;;;;;;5053738;28;19931;-71
2023/09/30 21:34:33;;;;;;;;;;;;;;;;;;5053722;28;19925;-70
2023/09/30 21:37:00;;;;;;;;;;;;;;;;;;5053691;28;19925;-70
2023/09/30 21:39:27;;;;;;;;;;;;;;;;;;5053569;28;19925;-70
2023/09/30 21:41:54;;;;;;;;;;;;;;;;;;5053575;28;19992;-70
2023/09/30 21:44:21;;;;;;;;;;;;;;;;;;5053568;28;19925;-70
2023/09/30 21:46:48;;;;;;;;;;;;;;;;;;5053278;28;20298;-70
2023/09/30 21:49:15;;;;;;;;;;;;;;;;;;5053566;28;19928;-70
2023/09/30 21:51:42;;;;;;;;;;;;;;;;;;5053197;28;19932;-70